Time;durP1;ratioP1;P1;durP2;ratioP2;P2;SDS_P1;SDS_P2;PMS_P1;PMS_P2;Temp;Humidity;BMP_temperature;BMP_pressure;BME280_temperature;BME280_humidity;BME280_pressure;Samples;Min_cycle;Max_cycle;Signal;HPM_P1;HPM_P2
2022/09/19 00:01:15;;;;;;;1.00;0.60;;;12.00;69.20;;;;;;5089735;28;20049;-59
2022/09/19 00:03:46;;;;;;;0.80;0.70;;;11.90;69.60;;;;;;5092078;28;20096;-62
2022/09/19 00:06:15;;;;;;;0.88;0.60;;;11.90;69.40;;;;;;5085379;28;20086;-59
2022/09/19 00:08:43;;;;;;;0.50;0.50;;;12.00;69.90;;;;;;5102835;28;20028;-58
2022/09/19 00:11:10;;;;;;;0.60;0.60;;;12.00;69.30;;;;;;5086791;28;20033;-59
2022/09/19 00:13:39;;;;;;;0.98;0.60;;;11.90;69.30;;;;;;5077144;28;20028;-59
2022/09/19 00:16:05;;;;;;;1.27;0.57;;;11.90;69.20;;;;;;5079740;28;20057;-59
2022/09/19 00:18:31;;;;;;;2.08;0.50;;;11.90;69.20;;;;;;5096280;28;20036;-59
2022/09/19 00:20:57;;;;;;;0.75;0.40;;;11.90;69.30;;;;;;5097885;28;20021;-61
2022/09/19 00:26:10;;;;;;;0.40;0.40;;;11.90;68.90;;;;;;5068437;28;20067;-59
2022/09/19 00:28:38;;;;;;;0.40;0.40;;;11.90;68.90;;;;;;5099356;28;20084;-60
2022/09/19 00:31:04;;;;;;;0.73;0.50;;;11.90;68.90;;;;;;5092899;28;20025;-59
2022/09/19 00:33:32;;;;;;;0.40;0.40;;;11.90;69.10;;;;;;5083715;28;20036;-59
2022/09/19 00:36:00;;;;;;;0.47;0.47;;;11.90;69.30;;;;;;5086078;28;20033;-60
2022/09/19 00:38:28;;;;;;;0.43;0.43;;;11.90;69.00;;;;;;5073059;28;20107;-60
2022/09/19 00:40:55;;;;;;;3.13;0.50;;;11.90;68.90;;;;;;5108001;28;20024;-60
2022/09/19 00:43:22;;;;;;;1.48;0.60;;;11.80;68.60;;;;;;5076293;28;20059;-60
2022/09/19 00:45:48;;;;;;;0.70;0.60;;;11.80;68.40;;;;;;5107507;28;20114;-59
2022/09/19 00:48:16;;;;;;;1.02;0.60;;;11.70;68.20;;;;;;5088151;28;20084;-60
2022/09/19 00:50:48;;;;;;;0.82;0.65;;;11.70;68.50;;;;;;5088300;28;20020;-58
2022/09/19 00:53:20;;;;;;;0.77;0.60;;;11.60;68.60;;;;;;5086371;28;20039;-61
2022/09/19 00:55:47;;;;;;;0.60;0.60;;;11.70;68.50;;;;;;5080113;28;20024;-59
2022/09/19 00:58:22;;;;;;;1.10;0.77;;;11.60;68.50;;;;;;5075660;28;20024;-59
2022/09/19 01:00:49;;;;;;;0.93;0.60;;;11.60;68.70;;;;;;5087743;28;20021;-59
2022/09/19 01:03:14;;;;;;;1.85;0.57;;;11.50;68.10;;;;;;5079123;28;20032;-60
2022/09/19 01:05:59;;;;;;;0.90;0.70;;;11.50;67.90;;;;;;5079812;28;20021;-59
2022/09/19 01:08:52;;;;;;;1.25;0.60;;;11.40;67.80;;;;;;5096438;28;20033;-61
2022/09/19 01:11:42;;;;;;;0.80;0.43;;;11.40;68.00;;;;;;5067601;28;20052;-59
2022/09/19 01:14:08;;;;;;;0.57;0.40;;;11.40;68.20;;;;;;5066606;28;20029;-62
2022/09/19 01:16:41;;;;;;;0.50;0.50;;;11.30;68.00;;;;;;5091638;28;20051;-60
2022/09/19 01:19:35;;;;;;;0.50;0.50;;;11.30;68.40;;;;;;5081472;28;20029;-61
2022/09/19 01:22:05;;;;;;;0.43;0.43;;;11.20;68.40;;;;;;5074878;28;20101;-60
2022/09/19 01:24:48;;;;;;;1.23;0.50;;;11.20;68.20;;;;;;5097094;28;20032;-60
2022/09/19 01:27:27;;;;;;;0.82;0.60;;;11.10;68.20;;;;;;5069309;28;20036;-59
2022/09/19 01:30:08;;;;;;;1.20;0.90;;;11.10;67.90;;;;;;5074071;28;20033;-60
2022/09/19 01:32:44;;;;;;;1.67;0.70;;;11.00;68.10;;;;;;5082413;28;20040;-60
2022/09/19 01:35:15;;;;;;;2.15;0.90;;;11.00;68.00;;;;;;5072493;28;20132;-60
2022/09/19 01:37:51;;;;;;;1.02;0.70;;;11.00;67.90;;;;;;5103145;28;20028;-59
2022/09/19 01:40:19;;;;;;;1.90;0.82;;;10.90;68.20;;;;;;5077998;28;20044;-62
2022/09/19 01:42:55;;;;;;;1.00;0.60;;;10.90;67.90;;;;;;5106851;28;20035;-60
2022/09/19 01:45:36;;;;;;;1.52;0.82;;;10.80;68.20;;;;;;5070885;28;20123;-60
2022/09/19 01:48:06;;;;;;;2.47;0.95;;;10.80;68.30;;;;;;5086709;28;20036;-60
2022/09/19 01:50:53;;;;;;;1.60;0.60;;;10.80;68.10;;;;;;5005739;28;20584;-59
2022/09/19 01:53:28;;;;;;;1.85;0.63;;;10.70;68.30;;;;;;5085350;28;20036;-59
2022/09/19 01:56:06;;;;;;;1.48;0.50;;;10.70;68.30;;;;;;5093894;28;20024;-60
2022/09/19 01:58:59;;;;;;;0.95;0.60;;;10.70;68.40;;;;;;5069039;28;20040;-59
2022/09/19 02:01:45;;;;;;;1.38;0.60;;;10.70;68.60;;;;;;5067131;28;20163;-61
2022/09/19 02:04:24;;;;;;;2.47;0.70;;;10.60;68.10;;;;;;5079523;28;20468;-59
2022/09/19 02:07:16;;;;;;;1.67;0.90;;;10.60;68.50;;;;;;5096055;28;20032;-59
2022/09/19 02:10:00;;;;;;;1.33;0.90;;;10.50;68.10;;;;;;5074723;28;20021;-60
2022/09/19 02:12:31;;;;;;;2.30;0.95;;;10.50;68.20;;;;;;5067163;28;20138;-60
2022/09/19 02:15:00;;;;;;;4.57;0.80;;;10.40;68.00;;;;;;5089747;28;20039;-59
2022/09/19 02:17:33;;;;;;;1.55;0.80;;;10.40;68.30;;;;;;5084179;28;20023;-59
2022/09/19 02:20:07;;;;;;;2.78;0.60;;;10.40;68.80;;;;;;5080273;28;20031;-60
2022/09/19 02:22:38;;;;;;;1.52;0.70;;;10.30;68.40;;;;;;5086336;28;20036;-60
2022/09/19 02:25:12;;;;;;;5.57;1.00;;;10.30;68.40;;;;;;5084884;28;20260;-59
2022/09/19 02:27:50;;;;;;;2.17;0.80;;;10.20;68.80;;;;;;5080741;28;20085;-59
2022/09/19 02:30:20;;;;;;;1.67;0.65;;;10.20;69.10;;;;;;5086082;28;20029;-59
2022/09/19 02:32:48;;;;;;;1.15;0.80;;;10.20;69.00;;;;;;5079857;28;20074;-59
2022/09/19 02:35:34;;;;;;;1.92;0.70;;;10.20;68.70;;;;;;5073970;28;20020;-60
2022/09/19 02:38:13;;;;;;;0.93;0.60;;;10.20;69.10;;;;;;5079264;28;20091;-59
2022/09/19 02:40:59;;;;;;;7.00;0.77;;;10.10;69.20;;;;;;5073459;28;20158;-60
2022/09/19 02:43:37;;;;;;;1.10;0.60;;;10.20;69.40;;;;;;5066890;28;20056;-59
2022/09/19 02:46:34;;;;;;;1.23;0.60;;;10.10;69.30;;;;;;5073752;28;20033;-61
2022/09/19 02:49:12;;;;;;;1.08;0.55;;;10.10;69.40;;;;;;5081636;28;20067;-61
2022/09/19 02:51:54;;;;;;;1.15;0.65;;;10.10;69.10;;;;;;5084568;28;20023;-60
2022/09/19 02:54:29;;;;;;;4.97;0.68;;;10.10;68.90;;;;;;5082021;28;20508;-60
2022/09/19 02:56:57;;;;;;;;;;;10.10;68.90;;;;;;5086897;28;20101;-59
2022/09/19 02:59:28;;;;;;;1.50;0.65;;;10.10;69.00;;;;;;5091561;28;19976;-60
2022/09/19 03:02:00;;;;;;;1.30;0.70;;;10.10;68.60;;;;;;5071601;28;20033;-59
2022/09/19 03:04:34;;;;;;;2.65;0.70;;;10.00;68.90;;;;;;5084119;28;20058;-58
2022/09/19 03:06:59;;;;;;;0.90;0.60;;;10.00;69.20;;;;;;5092435;28;20021;-61
2022/09/19 03:09:29;;;;;;;3.03;0.77;;;10.00;68.90;;;;;;5085026;28;20028;-61
2022/09/19 03:12:18;;;;;;;4.10;0.88;;;10.00;69.30;;;;;;5105429;28;20044;-60
2022/09/19 03:14:55;;;;;;;2.17;0.70;;;9.90;69.50;;;;;;5064593;28;20094;-58
2022/09/19 03:17:30;;;;;;;1.08;0.68;;;9.90;69.30;;;;;;5075649;28;20056;-58
2022/09/19 03:19:56;;;;;;;;;;;9.90;69.40;;;;;;5072192;28;20036;-60
2022/09/19 03:22:22;;;;;;;1.20;0.68;;;9.90;69.60;;;;;;5079348;28;19978;-59
2022/09/19 03:24:48;;;;;;;2.33;0.70;;;9.90;69.00;;;;;;5090594;28;20025;-59
2022/09/19 03:27:13;;;;;;;2.47;0.90;;;9.90;69.30;;;;;;5116479;28;20022;-60
2022/09/19 03:29:39;;;;;;;2.05;0.80;;;9.90;70.30;;;;;;5100986;28;20025;-60
2022/09/19 03:32:05;;;;;;;3.15;1.33;;;9.90;69.80;;;;;;5080338;28;20064;-59
2022/09/19 03:34:32;;;;;;;2.05;0.63;;;9.90;70.10;;;;;;5086121;28;20032;-60
2022/09/19 03:36:59;;;;;;;4.38;0.73;;;9.80;70.10;;;;;;5082527;28;20093;-59
2022/09/19 03:39:26;;;;;;;1.17;0.68;;;9.90;70.40;;;;;;5086070;28;20047;-61
2022/09/19 03:41:52;;;;;;;3.40;0.80;;;9.90;70.30;;;;;;5080931;28;20107;-61
2022/09/19 03:44:19;;;;;;;2.70;0.90;;;9.90;70.60;;;;;;5100496;28;20028;-60
2022/09/19 03:46:46;;;;;;;4.07;0.70;;;10.00;70.60;;;;;;5081267;28;20028;-59
2022/09/19 03:49:12;;;;;;;1.80;0.85;;;10.00;70.40;;;;;;5085910;28;20045;-58
2022/09/19 03:51:38;;;;;;;3.35;1.15;;;10.00;70.70;;;;;;5078216;28;20483;-60
2022/09/19 03:54:04;;;;;;;3.13;1.00;;;10.00;70.70;;;;;;5080485;28;20052;-60
2022/09/19 03:56:30;;;;;;;4.22;0.98;;;10.00;70.70;;;;;;5073501;28;20036;-62
2022/09/19 03:58:56;;;;;;;2.75;0.90;;;10.10;70.70;;;;;;5088564;28;20036;-61
2022/09/19 04:01:22;;;;;;;4.15;0.95;;;10.10;71.00;;;;;;5084830;28;20099;-60
2022/09/19 04:03:49;;;;;;;4.38;1.10;;;10.10;70.80;;;;;;5078246;28;20047;-60
2022/09/19 04:06:15;;;;;;;7.57;1.00;;;10.20;70.90;;;;;;5077747;28;20024;-58
2022/09/19 04:08:41;;;;;;;4.10;1.45;;;10.20;70.90;;;;;;5078311;28;20021;-61
2022/09/19 04:11:09;;;;;;;3.70;1.20;;;10.20;71.80;;;;;;5089925;28;20066;-59
2022/09/19 04:13:35;;;;;;;5.13;1.10;;;10.20;71.10;;;;;;5071727;28;20060;-59
2022/09/19 04:16:02;;;;;;;7.97;1.05;;;10.30;70.80;;;;;;5090645;28;20041;-59
2022/09/19 04:18:28;;;;;;;3.97;1.27;;;10.30;70.90;;;;;;5086701;28;20025;-58
2022/09/19 04:20:55;;;;;;;3.15;0.90;;;10.30;70.70;;;;;;5082398;28;20055;-59
2022/09/19 04:23:23;;;;;;;7.72;3.75;;;10.30;70.60;;;;;;5096300;28;20031;-59
2022/09/19 04:25:48;;;;;;;7.00;1.83;;;10.30;70.70;;;;;;5086282;28;20025;-59
2022/09/19 04:28:17;;;;;;;6.82;0.95;;;10.30;70.70;;;;;;5088880;28;20048;-58
2022/09/19 04:30:43;;;;;;;6.07;1.60;;;10.40;70.80;;;;;;5087750;28;20059;-59
2022/09/19 04:33:11;;;;;;;5.28;1.08;;;10.30;70.70;;;;;;5073793;28;20040;-58
2022/09/19 04:35:37;;;;;;;5.07;1.10;;;10.40;70.60;;;;;;5081594;28;20131;-58
2022/09/19 04:38:12;;;;;;;4.00;1.13;;;10.40;70.60;;;;;;5095695;28;20032;-59
2022/09/19 04:40:44;;;;;;;6.28;1.15;;;10.40;70.60;;;;;;5082711;28;20024;-60
2022/09/19 04:43:12;;;;;;;2.78;0.90;;;10.40;70.80;;;;;;5091435;28;20029;-59
2022/09/19 04:45:39;;;;;;;3.60;1.00;;;10.40;70.60;;;;;;5084733;28;20032;-59
2022/09/19 04:48:06;;;;;;;4.38;0.80;;;10.40;70.80;;;;;;5099561;28;20037;-59
2022/09/19 04:50:36;;;;;;;10.88;1.50;;;10.40;71.00;;;;;;5093620;28;20042;-59
2022/09/19 04:53:03;;;;;;;4.57;1.10;;;10.40;71.20;;;;;;5084726;28;20041;-60
2022/09/19 04:55:29;;;;;;;5.05;0.95;;;10.50;70.80;;;;;;5081166;28;20039;-60
2022/09/19 04:57:56;;;;;;;7.03;1.20;;;10.50;70.70;;;;;;5091508;28;20568;-59
2022/09/19 05:00:38;;;;;;;3.15;1.00;;;10.50;70.70;;;;;;5095911;28;20088;-58
2022/09/19 05:03:09;;;;;;;12.95;1.60;;;10.50;70.60;;;;;;5069885;28;20108;-59
2022/09/19 05:05:36;;;;;;;3.72;1.00;;;10.50;71.50;;;;;;5070343;28;20037;-59
2022/09/19 05:08:05;;;;;;;5.90;0.98;;;10.50;70.90;;;;;;5081640;28;20036;-58
2022/09/19 05:10:32;;;;;;;5.30;1.30;;;10.50;71.30;;;;;;5083059;28;20078;-59
2022/09/19 05:12:58;;;;;;;5.75;1.20;;;10.50;71.10;;;;;;5079272;28;20045;-59
2022/09/19 05:15:25;;;;;;;8.18;1.63;;;10.50;71.30;;;;;;5093046;28;20024;-60
2022/09/19 05:17:53;;;;;;;5.32;1.65;;;10.50;70.90;;;;;;5073444;28;20515;-59
2022/09/19 05:20:19;;;;;;;8.45;1.67;;;10.60;71.00;;;;;;5087508;28;20033;-60
2022/09/19 05:22:45;;;;;;;3.47;1.25;;;10.50;70.70;;;;;;5090204;28;20029;-59
2022/09/19 05:25:15;;;;;;;4.00;1.50;;;10.60;71.00;;;;;;5085623;28;20028;-59
2022/09/19 05:27:41;;;;;;;14.25;1.70;;;10.60;71.40;;;;;;5079186;28;20463;-60
2022/09/19 05:30:08;;;;;;;8.70;1.70;;;10.60;71.20;;;;;;5093039;28;20028;-59
2022/09/19 05:32:34;;;;;;;3.95;1.33;;;10.50;71.00;;;;;;5080301;28;20060;-60
2022/09/19 05:35:00;;;;;;;7.05;1.88;;;10.60;71.20;;;;;;5083673;28;20029;-60
2022/09/19 05:37:26;;;;;;;6.82;1.40;;;10.60;71.20;;;;;;5093537;28;20024;-59
2022/09/19 05:39:52;;;;;;;5.30;1.50;;;10.60;71.10;;;;;;5086541;28;20032;-59
2022/09/19 05:42:18;;;;;;;6.60;1.33;;;10.60;71.20;;;;;;5091890;28;20024;-59
2022/09/19 05:44:43;;;;;;;7.25;1.60;;;10.60;71.40;;;;;;5072049;28;20054;-58
2022/09/19 05:47:10;;;;;;;9.77;1.40;;;10.70;71.40;;;;;;5089601;28;20037;-59
2022/09/19 05:49:36;;;;;;;5.75;1.65;;;10.70;71.20;;;;;;5094517;28;20040;-59
2022/09/19 05:53:51;;;;;;;4.45;1.20;;;10.70;71.30;;;;;;5070083;28;20037;-58
2022/09/19 05:54:48;;;;;;;5.32;1.17;;;10.80;71.60;;;;;;5072761;28;20040;-59
2022/09/19 05:57:13;;;;;;;7.93;1.30;;;10.80;71.50;;;;;;5088281;28;20040;-59
2022/09/19 05:59:39;;;;;;;6.25;1.55;;;10.80;71.30;;;;;;5084423;28;20039;-61
2022/09/19 06:02:09;;;;;;;3.85;1.25;;;10.90;71.40;;;;;;5082924;28;20033;-60
2022/09/19 06:04:35;;;;;;;5.20;0.95;;;10.90;71.10;;;;;;5099492;28;20047;-58
2022/09/19 06:07:00;;;;;;;6.53;1.42;;;10.90;71.00;;;;;;5088211;28;20033;-58
2022/09/19 06:09:27;;;;;;;4.70;1.05;;;10.90;70.90;;;;;;5070895;28;20049;-60
2022/09/19 06:11:53;;;;;;;6.15;1.38;;;10.90;70.90;;;;;;5089444;28;20032;-59
2022/09/19 06:14:22;;;;;;;6.95;1.88;;;10.90;70.90;;;;;;5068423;28;20095;-58
2022/09/19 06:16:48;;;;;;;7.70;1.13;;;10.90;71.10;;;;;;5085117;28;20711;-60
2022/09/19 06:19:13;;;;;;;6.72;1.10;;;10.90;71.30;;;;;;5085385;28;20032;-59
2022/09/19 06:21:39;;;;;;;5.70;1.27;;;10.90;71.40;;;;;;5084346;28;20356;-59
2022/09/19 06:24:07;;;;;;;5.15;1.30;;;10.90;71.10;;;;;;5087859;28;20847;-60
2022/09/19 06:26:34;;;;;;;4.03;1.17;;;11.00;71.20;;;;;;5087175;28;20033;-60
2022/09/19 06:29:01;;;;;;;5.05;1.30;;;11.00;71.40;;;;;;5084337;28;20051;-58
2022/09/19 06:31:27;;;;;;;4.97;1.27;;;11.00;71.20;;;;;;5088099;28;20035;-59
2022/09/19 06:33:53;;;;;;;7.90;1.40;;;11.00;71.40;;;;;;5080197;28;20044;-58
2022/09/19 06:36:19;;;;;;;4.93;1.15;;;11.00;71.30;;;;;;5090823;28;20028;-59
2022/09/19 06:38:45;;;;;;;11.93;1.17;;;11.10;71.40;;;;;;5082901;28;20029;-60
2022/09/19 06:41:12;;;;;;;7.63;1.30;;;11.10;71.50;;;;;;5087122;28;20036;-58
2022/09/19 06:43:38;;;;;;;8.48;1.52;;;11.10;71.30;;;;;;5077291;28;20025;-58
2022/09/19 06:46:04;;;;;;;6.60;1.20;;;11.20;71.40;;;;;;5087022;28;20107;-59
2022/09/19 06:48:30;;;;;;;13.70;1.55;;;11.30;72.30;;;;;;5091172;28;20475;-59
2022/09/19 06:50:56;;;;;;;2.08;1.00;;;11.30;71.40;;;;;;5080770;28;20028;-58
2022/09/19 06:53:22;;;;;;;6.72;1.42;;;11.40;71.40;;;;;;5091596;28;20034;-60
2022/09/19 06:55:48;;;;;;;9.20;1.52;;;11.40;70.90;;;;;;5084180;28;20108;-59
2022/09/19 06:58:15;;;;;;;6.93;1.30;;;11.40;70.80;;;;;;5107211;28;20032;-60
2022/09/19 07:00:44;;;;;;;5.15;1.58;;;11.40;70.70;;;;;;5081905;28;20033;-59
2022/09/19 07:03:13;;;;;;;10.15;1.30;;;11.40;70.80;;;;;;5080501;28;20031;-59
2022/09/19 07:05:40;;;;;;;8.05;1.58;;;11.40;70.90;;;;;;5074677;28;20467;-58
2022/09/19 07:08:06;;;;;;;9.65;1.77;;;11.40;71.00;;;;;;5086997;28;20043;-59
2022/09/19 07:10:35;;;;;;;10.65;1.52;;;11.40;70.90;;;;;;5096274;28;20025;-59
2022/09/19 07:13:04;;;;;;;9.50;1.58;;;11.50;70.90;;;;;;5079127;28;20105;-61
2022/09/19 07:15:32;;;;;;;9.68;1.60;;;11.50;70.80;;;;;;5091801;28;20028;-59
2022/09/19 07:17:58;;;;;;;7.72;1.40;;;11.50;70.90;;;;;;5082913;28;20037;-59
2022/09/19 07:20:25;;;;;;;13.95;2.00;;;11.60;70.80;;;;;;5092252;28;20062;-59
2022/09/19 07:23:04;;;;;;;11.60;1.63;;;11.60;70.80;;;;;;5073871;28;20059;-58
2022/09/19 07:25:31;;;;;;;9.63;2.45;;;11.60;70.60;;;;;;5079051;28;20051;-59
2022/09/19 07:27:59;;;;;;;9.43;2.40;;;11.60;70.50;;;;;;5105046;28;20032;-59
2022/09/19 07:30:25;;;;;;;8.40;1.60;;;11.60;70.50;;;;;;5083782;28;20020;-58
2022/09/19 07:32:57;;;;;;;6.80;1.40;;;11.60;70.50;;;;;;5076164;28;20040;-59
2022/09/19 07:35:25;;;;;;;14.30;2.08;;;11.70;70.40;;;;;;5081258;28;20033;-59
2022/09/19 07:37:51;;;;;;;3.40;1.20;;;11.70;70.40;;;;;;5085259;28;20367;-58
2022/09/19 07:40:17;;;;;;;6.93;1.55;;;11.70;70.60;;;;;;5083769;28;20483;-60
2022/09/19 07:42:43;;;;;;;2.72;1.10;;;11.70;70.40;;;;;;5091343;28;20035;-61
2022/09/19 07:45:09;;;;;;;7.38;1.63;;;11.70;70.60;;;;;;5090795;28;20020;-59
2022/09/19 07:47:35;;;;;;;5.95;1.55;;;11.70;70.60;;;;;;5090309;28;20092;-59
2022/09/19 07:50:01;;;;;;;6.10;1.38;;;11.80;70.60;;;;;;5079058;28;20052;-60
2022/09/19 07:52:27;;;;;;;8.32;1.60;;;11.80;70.50;;;;;;5077372;28;20050;-59
2022/09/19 07:54:52;;;;;;;4.50;1.27;;;11.80;70.50;;;;;;5085140;28;20056;-59
2022/09/19 07:57:18;;;;;;;6.00;1.35;;;11.80;70.40;;;;;;5087729;28;20039;-60
2022/09/19 07:59:45;;;;;;;6.45;1.63;;;11.80;70.40;;;;;;5090727;28;20056;-59
2022/09/19 08:02:11;;;;;;;9.32;1.80;;;11.90;70.40;;;;;;5081075;28;20503;-60
2022/09/19 08:04:37;;;;;;;10.35;1.73;;;11.90;70.30;;;;;;5080174;28;20071;-60
2022/09/19 08:07:07;;;;;;;6.85;1.45;;;11.90;70.20;;;;;;5089365;28;20036;-59
2022/09/19 08:09:33;;;;;;;7.85;1.65;;;11.90;70.30;;;;;;5084513;28;20028;-60
2022/09/19 08:12:08;;;;;;;5.97;1.70;;;11.90;70.10;;;;;;5071718;28;20537;-58
2022/09/19 08:14:34;;;;;;;10.70;2.40;;;11.90;70.10;;;;;;5068570;28;20035;-58
2022/09/19 08:17:00;;;;;;;7.43;1.83;;;11.90;70.00;;;;;;5084700;28;20405;-59
2022/09/19 08:19:25;;;;;;;6.20;2.03;;;11.90;70.10;;;;;;5104123;28;20453;-58
2022/09/19 08:21:51;;;;;;;9.43;1.70;;;11.90;70.20;;;;;;5066461;28;20036;-60
2022/09/19 08:24:20;;;;;;;5.93;1.77;;;11.90;70.30;;;;;;5079624;28;20037;-59
2022/09/19 08:26:45;;;;;;;10.57;1.55;;;11.90;70.30;;;;;;5075867;28;20083;-59
2022/09/19 08:29:12;;;;;;;6.40;1.40;;;12.00;70.30;;;;;;5089227;28;20032;-59
2022/09/19 08:31:38;;;;;;;7.15;2.33;;;12.00;70.20;;;;;;5074211;28;20021;-59
2022/09/19 08:34:04;;;;;;;7.85;2.22;;;12.00;70.10;;;;;;5073713;28;20112;-60
2022/09/19 08:36:30;;;;;;;7.65;1.58;;;12.00;70.30;;;;;;5077758;28;20029;-60
2022/09/19 08:38:55;;;;;;;7.68;2.03;;;12.00;70.30;;;;;;5085422;28;20033;-59
2022/09/19 08:41:33;;;;;;;8.52;2.13;;;12.00;70.30;;;;;;5071714;28;20025;-59
2022/09/19 08:44:27;;;;;;;11.57;2.58;;;12.00;70.30;;;;;;5078682;28;20029;-59
2022/09/19 08:47:17;;;;;;;11.25;2.13;;;12.10;70.70;;;;;;5087896;28;20036;-60
2022/09/19 08:49:50;;;;;;;8.70;1.55;;;12.10;70.80;;;;;;5085375;28;20053;-59
2022/09/19 08:52:36;;;;;;;10.45;1.85;;;12.10;70.60;;;;;;5077015;28;20091;-59
2022/09/19 08:55:06;;;;;;;8.45;2.67;;;12.20;70.50;;;;;;5096069;28;20055;-60
2022/09/19 08:57:36;;;;;;;7.03;1.95;;;12.20;70.50;;;;;;5082366;28;20111;-60
2022/09/19 09:00:07;;;;;;;6.95;1.85;;;12.20;70.60;;;;;;5086397;28;20032;-59
2022/09/19 09:02:51;;;;;;;8.43;1.73;;;12.30;70.40;;;;;;5089209;28;20035;-59
2022/09/19 09:05:44;;;;;;;10.35;2.25;;;12.30;70.40;;;;;;5096449;28;20036;-59
2022/09/19 09:08:33;;;;;;;13.23;1.90;;;12.40;70.50;;;;;;5093284;28;20513;-59
2022/09/19 09:11:03;;;;;;;8.07;1.85;;;12.40;70.60;;;;;;5088165;28;20035;-58
2022/09/19 09:14:08;;;;;;;5.63;1.83;;;12.50;70.30;;;;;;5086152;28;20115;-59
2022/09/19 09:16:50;;;;;;;6.63;1.88;;;12.50;70.40;;;;;;5076287;28;20020;-59
2022/09/19 09:19:17;;;;;;;6.80;1.48;;;12.60;70.40;;;;;;5083690;28;20044;-61
2022/09/19 09:21:46;;;;;;;5.45;1.58;;;12.70;70.40;;;;;;5087983;28;20020;-58
2022/09/19 09:24:33;;;;;;;4.70;1.70;;;12.80;70.50;;;;;;5099674;28;20028;-60
2022/09/19 09:27:03;;;;;;;8.60;1.95;;;12.90;69.90;;;;;;5090469;28;20086;-59
2022/09/19 09:29:42;;;;;;;5.03;1.65;;;13.00;69.40;;;;;;5088254;28;20036;-60
2022/09/19 09:32:15;;;;;;;3.25;1.33;;;13.10;69.10;;;;;;5086398;28;20040;-60
2022/09/19 09:34:50;;;;;;;8.35;2.30;;;13.20;69.20;;;;;;5084675;28;20047;-62
2022/09/19 09:37:42;;;;;;;7.25;1.90;;;13.20;68.60;;;;;;5083646;28;20096;-59
2022/09/19 09:41:45;;;;;;;7.10;1.73;;;13.30;68.40;;;;;;5067998;28;20036;-61
2022/09/19 09:43:08;;;;;;;7.35;2.22;;;13.30;68.40;;;;;;5069360;28;20179;-58
2022/09/19 09:45:44;;;;;;;5.90;1.50;;;13.40;68.80;;;;;;5105937;28;20047;-60
2022/09/19 09:48:37;;;;;;;9.40;1.60;;;13.50;68.30;;;;;;5105406;28;20525;-60
2022/09/19 09:51:19;;;;;;;7.95;1.67;;;13.60;68.50;;;;;;5032456;28;20468;-59
2022/09/19 09:53:52;;;;;;;7.72;1.70;;;13.60;68.50;;;;;;5067020;28;20040;-60
2022/09/19 09:56:41;;;;;;;7.80;1.83;;;13.80;68.10;;;;;;5083682;28;20061;-59
2022/09/19 10:05:25;;;;;;;3.15;1.23;;;14.00;66.40;;;;;;5066759;28;20475;-60
2022/09/19 10:08:03;;;;;;;6.03;1.40;;;14.10;66.70;;;;;;5066730;28;20029;-59
2022/09/19 10:10:31;;;;;;;5.57;1.63;;;14.10;66.20;;;;;;5070389;28;20088;-61
2022/09/19 10:13:14;;;;;;;6.30;1.52;;;14.10;66.20;;;;;;5102847;28;20036;-59
2022/09/19 10:15:39;;;;;;;11.15;1.85;;;14.10;65.90;;;;;;5105531;28;20092;-58
2022/09/19 10:18:13;;;;;;;4.30;1.60;;;14.10;66.30;;;;;;5106840;28;20035;-60
2022/09/19 10:20:51;;;;;;;10.27;1.60;;;14.10;65.80;;;;;;5071178;28;20031;-59
2022/09/19 10:23:25;;;;;;;7.80;1.50;;;14.20;65.90;;;;;;5074040;28;20021;-61
2022/09/19 10:25:59;;;;;;;4.97;1.42;;;14.30;65.60;;;;;;5086543;28;20037;-59
2022/09/19 10:28:40;;;;;;;4.05;1.52;;;14.30;65.70;;;;;;5071045;28;20041;-60
2022/09/19 10:31:40;;;;;;;3.78;1.58;;;14.40;65.80;;;;;;5082349;28;20482;-60
2022/09/19 10:34:32;;;;;;;6.82;1.50;;;14.50;65.20;;;;;;5106669;28;20032;-59
2022/09/19 10:37:09;;;;;;;2.65;0.90;;;14.70;65.50;;;;;;5069184;28;20044;-60
2022/09/19 10:39:44;;;;;;;3.03;1.38;;;15.00;65.80;;;;;;5075782;28;20040;-58
2022/09/19 10:42:42;;;;;;;5.85;1.40;;;15.00;65.20;;;;;;5079265;28;20046;-61
2022/09/19 10:45:45;;;;;;;4.45;1.08;;;15.10;64.40;;;;;;5062670;28;20051;-60
2022/09/19 10:48:26;;;;;;;5.05;1.30;;;15.20;63.90;;;;;;5026859;28;20042;-60
2022/09/19 10:50:53;;;;;;;4.82;1.60;;;15.30;63.30;;;;;;5049516;28;20056;-60
2022/09/19 10:53:30;;;;;;;5.63;1.40;;;15.30;62.60;;;;;;5043542;28;20037;-62
2022/09/19 10:56:02;;;;;;;5.65;1.42;;;15.30;61.60;;;;;;5048623;28;20049;-60
2022/09/19 10:58:35;;;;;;;4.60;1.13;;;15.30;62.00;;;;;;5023481;28;20054;-62
2022/09/19 11:01:04;;;;;;;6.50;1.67;;;15.20;62.50;;;;;;5046899;28;20072;-61
2022/09/19 11:03:39;;;;;;;4.10;1.30;;;15.20;62.50;;;;;;5048995;28;20105;-61
2022/09/19 11:06:14;;;;;;;5.40;1.40;;;15.10;61.50;;;;;;5033381;28;20083;-59
2022/09/19 11:08:46;;;;;;;3.60;1.02;;;15.10;61.70;;;;;;5062662;28;20131;-60
2022/09/19 11:11:46;;;;;;;4.32;1.15;;;15.10;62.40;;;;;;5034359;28;20472;-60
2022/09/19 11:14:22;;;;;;;5.93;1.60;;;15.00;62.20;;;;;;5023494;28;20117;-59
2022/09/19 11:17:06;;;;;;;10.45;2.28;;;15.00;62.10;;;;;;5039830;28;20056;-61
2022/09/19 11:19:53;;;;;;;5.47;1.40;;;14.90;62.00;;;;;;5023495;28;20033;-59
2022/09/19 11:22:58;;;;;;;3.05;1.20;;;14.80;62.00;;;;;;5027332;28;20042;-59
2022/09/19 11:25:28;;;;;;;3.42;1.23;;;14.80;62.10;;;;;;5053927;28;20150;-60
2022/09/19 11:28:18;;;;;;;5.53;1.65;;;14.80;63.10;;;;;;5064073;28;20017;-60
2022/09/19 11:31:27;;;;;;;6.22;1.42;;;14.70;62.80;;;;;;5065828;28;20115;-59
2022/09/19 11:34:11;;;;;;;4.30;1.42;;;14.70;62.70;;;;;;5073864;28;20071;-60
2022/09/19 11:37:08;;;;;;;6.80;1.70;;;14.70;63.40;;;;;;5067711;28;20085;-59
2022/09/19 11:39:52;;;;;;;4.85;1.13;;;14.70;63.20;;;;;;5081568;28;20271;-59
2022/09/19 11:42:32;;;;;;;5.40;1.38;;;14.70;64.00;;;;;;5085934;28;20107;-60
2022/09/19 11:45:10;;;;;;;6.05;1.60;;;14.80;64.90;;;;;;5079280;28;20070;-60
2022/09/19 11:48:22;;;;;;;6.32;1.20;;;15.00;65.50;;;;;;5080181;28;20039;-60
2022/09/19 11:50:59;;;;;;;5.88;1.45;;;15.20;64.40;;;;;;5075370;28;20039;-61
2022/09/19 11:53:42;;;;;;;10.80;1.25;;;15.40;63.70;;;;;;5080297;28;20043;-60
2022/09/19 11:56:43;;;;;;;5.20;1.27;;;15.60;63.30;;;;;;5071937;28;20021;-60
2022/09/19 11:59:28;;;;;;;4.05;1.20;;;15.60;62.10;;;;;;5081208;28;20032;-60
2022/09/19 12:02:09;;;;;;;4.00;1.27;;;15.70;62.60;;;;;;5081311;28;20017;-61
2022/09/19 12:04:40;;;;;;;3.55;1.15;;;15.70;61.80;;;;;;5066520;28;20029;-60
2022/09/19 12:07:11;;;;;;;4.18;1.20;;;15.80;62.00;;;;;;5078800;28;20036;-59
2022/09/19 12:09:46;;;;;;;3.42;1.40;;;15.80;62.20;;;;;;5074948;28;20042;-59
2022/09/19 12:12:16;;;;;;;4.00;1.40;;;15.80;61.50;;;;;;5080677;28;20055;-60
2022/09/19 12:14:51;;;;;;;4.50;1.70;;;15.90;61.40;;;;;;5089532;28;20047;-59
2022/09/19 12:17:27;;;;;;;2.47;1.15;;;15.90;61.30;;;;;;5078748;28;20036;-60
2022/09/19 12:20:47;;;;;;;6.78;2.25;;;15.90;61.00;;;;;;5080625;28;20367;-61
2022/09/19 12:26:01;;;;;;;3.15;1.00;;;16.10;61.00;;;;;;5084821;28;20086;-60
2022/09/19 12:28:33;;;;;;;2.63;1.00;;;16.20;60.20;;;;;;5081608;28;20029;-60
2022/09/19 12:31:03;;;;;;;3.17;1.00;;;16.20;59.20;;;;;;5074075;28;20483;-59
2022/09/19 12:33:35;;;;;;;5.25;0.80;;;16.20;59.00;;;;;;5090395;28;20036;-59
2022/09/19 12:36:20;;;;;;;7.57;1.30;;;16.20;59.50;;;;;;5084216;28;20032;-59
2022/09/19 12:38:59;;;;;;;3.30;1.42;;;16.10;59.30;;;;;;5093612;28;20039;-60
2022/09/19 12:41:30;;;;;;;4.15;1.05;;;16.00;59.20;;;;;;5082245;28;20420;-60
2022/09/19 12:44:04;;;;;;;4.47;1.02;;;16.00;59.60;;;;;;5084337;28;20028;-60
2022/09/19 12:46:57;;;;;;;4.03;1.15;;;16.00;59.80;;;;;;5081887;28;20028;-60
2022/09/19 12:49:37;;;;;;;2.65;1.15;;;16.00;59.70;;;;;;5090052;28;20028;-60
2022/09/19 12:52:19;;;;;;;4.43;1.48;;;16.20;60.20;;;;;;5077300;28;20025;-60
2022/09/19 12:54:54;;;;;;;6.65;1.30;;;16.40;60.10;;;;;;5085280;28;20038;-59
2022/09/19 12:57:47;;;;;;;5.15;1.15;;;16.50;59.70;;;;;;5091257;28;20037;-60
2022/09/19 13:00:14;;;;;;;3.22;1.00;;;16.70;58.90;;;;;;5087708;28;20016;-60
2022/09/19 13:02:44;;;;;;;4.57;1.27;;;16.90;59.00;;;;;;5085604;28;20021;-60
2022/09/19 13:05:20;;;;;;;3.05;1.00;;;17.00;59.20;;;;;;5095704;28;20039;-59
2022/09/19 13:08:34;;;;;;;2.83;0.95;;;17.20;59.60;;;;;;5083069;28;20025;-62
2022/09/19 13:11:16;;;;;;;3.20;1.07;;;17.40;58.60;;;;;;5061299;28;20559;-60
2022/09/19 13:13:51;;;;;;;5.15;1.23;;;17.60;56.90;;;;;;5061376;28;20132;-61
2022/09/19 13:16:21;;;;;;;2.00;1.08;;;17.70;56.60;;;;;;5048971;28;20037;-61
2022/09/19 13:24:37;;;;;;;7.22;1.20;;;17.50;54.70;;;;;;5045035;28;20146;-60
2022/09/19 13:27:04;;;;;;;4.43;0.98;;;17.40;54.90;;;;;;5052685;28;20029;-60
2022/09/19 13:29:30;;;;;;;6.10;1.27;;;17.30;55.20;;;;;;5046951;28;20079;-59
2022/09/19 13:32:01;;;;;;;3.22;1.30;;;17.10;55.50;;;;;;5049966;28;20439;-60
2022/09/19 13:34:38;;;;;;;7.18;1.13;;;17.00;55.60;;;;;;5062357;28;20029;-61
2022/09/19 13:37:26;;;;;;;2.75;0.80;;;16.90;56.10;;;;;;5052197;28;20044;-59